Time,TemperatureF,DewpointF,PressureIn,WindDirection,WindDirectionDegrees,WindSpeedMPH,WindSpeedGustMPH,Humidity,HourlyPrecipIn,Conditions,Clouds,dailyrainin,SoftwareType,DateUTC
2013-04-03 00:08:00,45.8,30.0,30.15,SE,126,0.0,-999.0,54,-99.99,,,0.00,weatherlink.com 1.10,2013-04-03 04:08:00,
2013-04-03 00:41:00,45.8,31.0,30.15,SE,126,0.0,-999.0,56,-99.99,,,0.00,weatherlink.com 1.10,2013-04-03 04:41:00,
2013-04-03 00:53:00,45.1,30.0,30.17,SE,126,0.0,-999.0,57,-99.99,,,0.00,weatherlink.com 1.10,2013-04-03 04:53:00,
2013-04-03 01:08:00,44.9,30.0,30.18,SE,126,0.0,-999.0,56,-99.99,,,0.00,weatherlink.com 1.10,2013-04-03 05:08:00,
2013-04-03 01:41:00,44.9,30.0,30.18,SE,126,0.0,-999.0,56,-99.99,,,0.00,weatherlink.com 1.10,2013-04-03 05:41:00,
2013-04-03 01:53:00,45.6,25.0,30.19,SE,126,0.0,-999.0,45,-99.99,,,0.00,weatherlink.com 1.10,2013-04-03 05:53:00,
2013-04-03 02:08:00,45.9,24.0,30.19,SSW,206,0.0,-999.0,42,-99.99,,,0.00,weatherlink.com 1.10,2013-04-03 06:08:00,
2013-04-03 02:41:00,46.0,23.0,30.19,SSW,198,0.0,-999.0,40,-99.99,,,0.00,weatherlink.com 1.10,2013-04-03 06:41:00,
2013-04-03 02:53:00,46.0,22.0,30.21,South,180,0.0,-999.0,39,-99.99,,,0.00,weatherlink.com 1.10,2013-04-03 06:53:00,
2013-04-03 03:08:00,45.9,21.0,30.21,South,180,0.0,-999.0,38,-99.99,,,0.00,weatherlink.com 1.10,2013-04-03 07:08:00,
2013-04-03 03:41:00,45.9,20.0,30.21,South,180,0.0,-999.0,36,-99.99,,,0.00,weatherlink.com 1.10,2013-04-03 07:41:00,
2013-04-03 03:53:00,45.2,21.0,30.20,South,189,0.0,-999.0,39,-99.99,,,0.00,weatherlink.com 1.10,2013-04-03 07:53:00,
2013-04-03 04:08:00,44.6,21.0,30.20,South,189,0.0,-999.0,39,-99.99,,,0.00,weatherlink.com 1.10,2013-04-03 08:08:00,
2013-04-03 04:41:00,44.3,23.0,30.20,South,189,0.0,-999.0,43,-99.99,,,0.00,weatherlink.com 1.10,2013-04-03 08:41:00,
2013-04-03 04:53:00,42.9,23.0,30.22,SSE,150,0.0,-999.0,45,-99.99,,,0.00,weatherlink.com 1.10,2013-04-03 08:53:00,
2013-04-03 05:08:00,42.4,23.0,30.22,SSE,150,0.0,-999.0,47,-99.99,,,0.00,weatherlink.com 1.10,2013-04-03 09:08:00,
2013-04-03 05:41:00,42.1,23.0,30.22,SSE,150,0.0,-999.0,47,-99.99,,,0.00,weatherlink.com 1.10,2013-04-03 09:41:00,
2013-04-03 05:53:00,41.1,22.0,30.22,SSE,151,0.0,-999.0,47,-99.99,,,0.00,weatherlink.com 1.10,2013-04-03 09:53:00,
2013-04-03 06:08:00,40.9,22.0,30.23,SSE,151,0.0,-999.0,47,-99.99,,,0.00,weatherlink.com 1.10,2013-04-03 10:08:00,
2013-04-03 06:41:00,40.9,23.0,30.23,SSE,151,0.0,-999.0,49,-99.99,,,0.00,weatherlink.com 1.10,2013-04-03 10:41:00,
2013-04-03 06:53:00,41.0,23.0,30.23,SSE,152,0.0,-999.0,49,-99.99,,,0.00,weatherlink.com 1.10,2013-04-03 10:53:00,
2013-04-03 07:08:00,41.1,24.0,30.23,SSE,152,0.0,-999.0,51,-99.99,,,0.00,weatherlink.com 1.10,2013-04-03 11:08:00,
2013-04-03 07:41:00,41.1,24.0,30.24,SSE,152,0.0,-999.0,50,-99.99,,,0.00,weatherlink.com 1.10,2013-04-03 11:41:00,
2013-04-03 07:53:00,41.1,24.0,30.29,SSE,152,0.0,-999.0,50,-99.99,,,0.00,weatherlink.com 1.10,2013-04-03 11:53:00,
2013-04-03 08:08:00,41.3,25.0,30.27,SSE,152,0.0,-999.0,52,-99.99,,,0.00,weatherlink.com 1.10,2013-04-03 12:08:00,
2013-04-03 08:41:00,41.4,24.0,30.28,SSE,149,0.0,-999.0,51,-99.99,,,0.00,weatherlink.com 1.10,2013-04-03 12:41:00,
2013-04-03 08:53:00,43.2,25.0,30.29,South,184,0.0,-999.0,48,-99.99,,,0.00,weatherlink.com 1.10,2013-04-03 12:53:00,
2013-04-03 09:41:00,44.4,24.0,30.30,SSW,196,2.0,-999.0,45,-99.99,,,0.00,weatherlink.com 1.10,2013-04-03 13:41:00,
2013-04-03 09:53:00,47.2,23.0,30.30,SSW,202,0.0,-999.0,39,-99.99,,,0.00,weatherlink.com 1.10,2013-04-03 13:53:00,
2013-04-03 10:08:00,48.5,23.0,30.30,SSW,209,0.0,-999.0,37,-99.99,,,0.00,weatherlink.com 1.10,2013-04-03 14:08:00,
2013-04-03 11:08:00,50.3,22.0,30.29,SE,146,2.0,-999.0,33,-99.99,,,0.00,weatherlink.com 1.10,2013-04-03 15:08:00,
2013-04-03 11:41:00,51.2,21.0,30.28,SE,125,0.0,-999.0,31,-99.99,,,0.00,weatherlink.com 1.10,2013-04-03 15:41:00,
2013-04-03 11:53:00,52.0,20.0,30.27,South,187,1.0,-999.0,29,-99.99,,,0.00,weatherlink.com 1.10,2013-04-03 15:53:00,
2013-04-03 12:41:00,53.5,20.0,30.26,East,90,1.0,-999.0,27,-99.99,,,0.00,weatherlink.com 1.10,2013-04-03 16:41:00,
2013-04-03 12:53:00,54.0,22.0,30.25,NW,306,2.0,-999.0,29,-99.99,,,0.00,weatherlink.com 1.10,2013-04-03 16:53:00,
2013-04-03 13:08:00,55.1,21.0,30.25,South,179,0.0,-999.0,27,-99.99,,,0.00,weatherlink.com 1.10,2013-04-03 17:08:00,
2013-04-03 13:38:00,56.4,22.0,30.24,East,101,0.0,-999.0,26,-99.99,,,0.00,weatherlink.com 1.10,2013-04-03 17:38:00,
2013-04-03 13:53:00,56.6,22.0,30.23,ENE,72,0.0,-999.0,26,-99.99,,,0.00,weatherlink.com 1.10,2013-04-03 17:53:00,
2013-04-03 14:08:00,57.6,23.0,30.23,SSW,201,0.0,-999.0,26,-99.99,,,0.00,weatherlink.com 1.10,2013-04-03 18:08:00,
2013-04-03 14:41:00,57.4,22.0,30.22,SSW,211,0.0,-999.0,25,-99.99,,,0.00,weatherlink.com 1.10,2013-04-03 18:41:00,
2013-04-03 15:41:00,59.9,25.0,30.20,SSW,203,0.0,-999.0,26,-99.99,,,0.00,weatherlink.com 1.10,2013-04-03 19:41:00,
2013-04-03 16:41:00,61.4,22.0,30.21,East,89,2.0,-999.0,22,-99.99,,,0.00,weatherlink.com 1.10,2013-04-03 20:41:00,
2013-04-03 16:53:00,61.5,22.0,30.22,East,84,0.0,-999.0,22,-99.99,,,0.00,weatherlink.com 1.10,2013-04-03 20:53:00,
2013-04-03 17:08:00,61.3,22.0,30.22,East,100,1.0,-999.0,22,-99.99,,,0.00,weatherlink.com 1.10,2013-04-03 21:08:00,
2013-04-03 17:53:00,60.1,21.0,30.22,East,93,0.0,-999.0,22,-99.99,,,0.00,weatherlink.com 1.10,2013-04-03 21:53:00,
2013-04-03 18:08:00,59.5,22.0,30.23,East,92,0.0,-999.0,24,-99.99,,,0.00,weatherlink.com 1.10,2013-04-03 22:08:00,
2013-04-03 18:53:00,57.7,24.0,30.23,SSE,155,0.0,-999.0,27,-99.99,,,0.00,weatherlink.com 1.10,2013-04-03 22:53:00,
2013-04-03 19:08:00,56.7,25.0,30.23,SSE,155,0.0,-999.0,29,-99.99,,,0.00,weatherlink.com 1.10,2013-04-03 23:08:00,
2013-04-03 19:41:00,56.3,26.0,30.23,SSE,155,0.0,-999.0,31,-99.99,,,0.00,weatherlink.com 1.10,2013-04-03 23:41:00,
2013-04-03 19:53:00,54.4,26.0,30.23,SSE,155,0.0,-999.0,33,-99.99,,,0.00,weatherlink.com 1.10,2013-04-03 23:53:00,
2013-04-03 20:09:00,53.7,28.0,30.24,SSE,155,0.0,-999.0,38,-99.99,,,0.00,weatherlink.com 1.10,2013-04-04 00:09:00,
2013-04-03 20:41:00,53.3,29.0,30.24,SSE,155,0.0,-999.0,39,-99.99,,,0.00,weatherlink.com 1.10,2013-04-04 00:41:00,
2013-04-03 20:53:00,51.6,29.0,30.26,SSE,155,0.0,-999.0,42,-99.99,,,0.00,weatherlink.com 1.10,2013-04-04 00:53:00,
2013-04-03 21:08:00,51.1,30.0,30.27,SSE,155,0.0,-999.0,44,-99.99,,,0.00,weatherlink.com 1.10,2013-04-04 01:08:00,
2013-04-03 21:53:00,50.0,31.0,30.28,SSE,155,0.0,-999.0,49,-99.99,,,0.00,weatherlink.com 1.10,2013-04-04 01:53:00,
2013-04-03 22:08:00,49.7,32.0,30.30,SSE,155,0.0,-999.0,50,-99.99,,,0.00,weatherlink.com 1.10,2013-04-04 02:08:00,
2013-04-03 22:40:00,49.5,32.0,30.30,SSE,155,0.0,-999.0,51,-99.99,,,0.00,weatherlink.com 1.10,2013-04-04 02:40:00,
2013-04-03 22:52:00,48.7,33.0,30.30,SSE,155,0.0,-999.0,54,-99.99,,,0.00,weatherlink.com 1.10,2013-04-04 02:52:00,
2013-04-03 23:07:00,48.3,33.0,30.30,SSE,155,0.0,-999.0,55,-99.99,,,0.00,weatherlink.com 1.10,2013-04-04 03:07:00,
2013-04-03 23:40:00,48.2,33.0,30.30,SSE,155,0.0,-999.0,55,-99.99,,,0.00,weatherlink.com 1.10,2013-04-04 03:40:00,
2013-04-03 23:52:00,47.2,32.0,30.30,SSE,155,0.0,-999.0,55,-99.99,,,0.00,weatherlink.com 1.10,2013-04-04 03:52:00,